Time;durP1;ratioP1;P1;durP2;ratioP2;P2;SDS_P1;SDS_P2;PMS_P1;PMS_P2;Temp;Humidity;BMP_temperature;BMP_pressure;BME280_temperature;BME280_humidity;BME280_pressure;Samples;Min_cycle;Max_cycle;Signal;HPM_P1;HPM_P2
2023/06/27 00:01:16;;;;;;;7.80;1.70;;;;;;;;;;5094004;28;20471;-59
2023/06/27 00:03:43;;;;;;;4.23;2.20;;;;;;;;;;5093894;28;20452;-59
2023/06/27 00:06:10;;;;;;;3.90;1.57;;;;;;;;;;5093744;28;20489;-59
2023/06/27 00:08:37;;;;;;;2.23;1.70;;;;;;;;;;5093742;28;20858;-59
2023/06/27 00:11:04;;;;;;;2.23;1.80;;;;;;;;;;5093876;28;20966;-59
2023/06/27 00:13:31;;;;;;;3.63;1.73;;;;;;;;;;5093115;28;20536;-59
2023/06/27 00:16:00;;;;;;;2.17;1.97;;;;;;;;;;5093786;28;20455;-59
2023/06/27 00:18:34;;;;;;;2.13;1.73;;;;;;;;;;5093618;28;20450;-58
2023/06/27 00:21:01;;;;;;;3.83;2.10;;;;;;;;;;5093557;28;20501;-59
2023/06/27 00:23:33;;;;;;;3.83;2.10;;;;;;;;;;5093507;28;20541;-59
2023/06/27 00:26:00;;;;;;;3.50;2.10;;;;;;;;;;5093610;28;20653;-58
2023/06/27 00:28:27;;;;;;;2.27;2.07;;;;;;;;;;5093317;28;20965;-59
2023/06/27 00:30:54;;;;;;;3.77;1.83;;;;;;;;;;5093434;28;20457;-58
2023/06/27 00:33:22;;;;;;;4.60;2.17;;;;;;;;;;5093319;28;20454;-60
2023/06/27 00:35:49;;;;;;;4.13;2.20;;;;;;;;;;5093537;28;20871;-59
2023/06/27 00:38:16;;;;;;;2.33;2.13;;;;;;;;;;5093560;28;20460;-60
2023/06/27 00:40:43;;;;;;;2.23;2.03;;;;;;;;;;5093435;28;20457;-58
2023/06/27 00:43:10;;;;;;;2.40;1.73;;;;;;;;;;5093196;28;20948;-59
2023/06/27 00:45:37;;;;;;;5.17;2.20;;;;;;;;;;5093133;28;20859;-59
2023/06/27 00:48:04;;;;;;;2.47;2.00;;;;;;;;;;5093123;28;20461;-59
2023/06/27 00:50:33;;;;;;;6.80;2.30;;;;;;;;;;5093438;28;20807;-59
2023/06/27 00:53:00;;;;;;;3.77;1.70;;;;;;;;;;5093303;28;20450;-59
2023/06/27 00:55:28;;;;;;;3.07;2.20;;;;;;;;;;5093061;28;20453;-59
2023/06/27 00:57:55;;;;;;;3.10;2.10;;;;;;;;;;5093121;28;20454;-59
2023/06/27 01:00:22;;;;;;;2.43;2.00;;;;;;;;;;5093037;28;20522;-60
2023/06/27 01:02:49;;;;;;;1.87;1.70;;;;;;;;;;5092982;28;20499;-59
2023/06/27 01:05:17;;;;;;;5.10;2.53;;;;;;;;;;5093136;28;20604;-59
2023/06/27 01:07:49;;;;;;;2.13;1.87;;;;;;;;;;5093122;28;20453;-59
2023/06/27 01:10:19;;;;;;;2.80;2.03;;;;;;;;;;5093039;28;20459;-59
2023/06/27 01:12:50;;;;;;;3.80;1.93;;;;;;;;;;5092955;28;20491;-59
2023/06/27 01:15:17;;;;;;;8.97;2.23;;;;;;;;;;5092860;28;20459;-59
2023/06/27 01:17:44;;;;;;;4.93;1.97;;;;;;;;;;5093084;28;20544;-58
2023/06/27 01:20:12;;;;;;;4.03;1.80;;;;;;;;;;5093025;28;20498;-59
2023/06/27 01:22:41;;;;;;;1.63;1.50;;;;;;;;;;5093182;28;20812;-59
2023/06/27 01:25:12;;;;;;;3.43;2.27;;;;;;;;;;5095611;28;20639;-59
2023/06/27 01:27:39;;;;;;;4.13;2.07;;;;;;;;;;5096873;28;20460;-59
2023/06/27 01:30:08;;;;;;;4.30;2.60;;;;;;;;;;5097067;28;20453;-58
2023/06/27 01:32:37;;;;;;;2.37;1.67;;;;;;;;;;5096892;28;20532;-59
2023/06/27 01:35:05;;;;;;;8.17;2.30;;;;;;;;;;5096933;28;20790;-59
2023/06/27 01:37:35;;;;;;;4.00;2.40;;;;;;;;;;5096714;28;20499;-59
2023/06/27 01:40:03;;;;;;;4.13;1.83;;;;;;;;;;5096614;28;20453;-59
2023/06/27 01:42:33;;;;;;;8.20;2.37;;;;;;;;;;5096886;28;20461;-58
2023/06/27 01:45:00;;;;;;;4.20;2.13;;;;;;;;;;5097021;28;20472;-59
2023/06/27 01:47:27;;;;;;;3.27;1.90;;;;;;;;;;5096667;28;20540;-58
2023/06/27 01:49:55;;;;;;;5.83;2.93;;;;;;;;;;5096494;28;20455;-59
2023/06/27 01:52:21;;;;;;;4.60;2.60;;;;;;;;;;5096380;28;20450;-59
2023/06/27 01:54:48;;;;;;;6.17;2.50;;;;;;;;;;5096285;28;20552;-58
2023/06/27 01:57:15;;;;;;;5.37;2.60;;;;;;;;;;5096162;28;20533;-59
2023/06/27 01:59:44;;;;;;;5.43;2.37;;;;;;;;;;5096523;28;20684;-59
2023/06/27 02:02:10;;;;;;;7.13;2.47;;;;;;;;;;5096220;28;20973;-58
2023/06/27 02:04:37;;;;;;;4.00;2.30;;;;;;;;;;5096269;28;20448;-59
2023/06/27 02:07:04;;;;;;;10.43;2.37;;;;;;;;;;5095998;28;20483;-59
2023/06/27 02:09:31;;;;;;;3.33;1.93;;;;;;;;;;5096290;28;20456;-59
2023/06/27 02:11:58;;;;;;;8.47;2.90;;;;;;;;;;5096172;28;20488;-60
2023/06/27 02:14:25;;;;;;;3.60;2.27;;;;;;;;;;5096116;28;20466;-59
2023/06/27 02:16:53;;;;;;;6.67;2.17;;;;;;;;;;5095987;28;20544;-58
2023/06/27 02:19:20;;;;;;;4.27;2.17;;;;;;;;;;5095993;28;20481;-59
2023/06/27 02:21:49;;;;;;;3.53;2.70;;;;;;;;;;5095932;28;20450;-59
2023/06/27 02:24:15;;;;;;;4.50;2.17;;;;;;;;;;5095721;28;20958;-58
2023/06/27 02:26:42;;;;;;;8.57;2.60;;;;;;;;;;5095694;28;20995;-60
2023/06/27 02:29:09;;;;;;;11.23;2.93;;;;;;;;;;5095871;28;20467;-59
2023/06/27 02:31:36;;;;;;;4.53;2.23;;;;;;;;;;5095732;28;20518;-59
2023/06/27 02:34:04;;;;;;;7.50;2.33;;;;;;;;;;5095655;28;20444;-59
2023/06/27 02:36:31;;;;;;;2.83;2.60;;;;;;;;;;5094787;28;20539;-59
2023/06/27 02:39:01;;;;;;;6.27;2.43;;;;;;;;;;5095818;28;20872;-59
2023/06/27 02:41:27;;;;;;;9.93;3.27;;;;;;;;;;5095649;28;20449;-58
2023/06/27 02:43:54;;;;;;;4.93;2.73;;;;;;;;;;5095456;28;20453;-58
2023/06/27 02:46:21;;;;;;;6.97;3.00;;;;;;;;;;5095492;28;20487;-59
2023/06/27 02:48:48;;;;;;;6.13;2.63;;;;;;;;;;5095284;28;20453;-59
2023/06/27 02:51:16;;;;;;;4.63;2.43;;;;;;;;;;5095505;28;20527;-59
2023/06/27 02:53:43;;;;;;;4.43;2.70;;;;;;;;;;5095404;28;20455;-59
2023/06/27 02:56:10;;;;;;;7.03;3.30;;;;;;;;;;5095180;28;20480;-59
2023/06/27 02:58:38;;;;;;;7.77;3.07;;;;;;;;;;5095193;28;20535;-59
2023/06/27 03:01:06;;;;;;;8.30;2.93;;;;;;;;;;5095212;28;20906;-58
2023/06/27 03:03:33;;;;;;;9.93;2.80;;;;;;;;;;5095040;28;20444;-59
2023/06/27 03:06:02;;;;;;;5.93;2.80;;;;;;;;;;5095133;28;20529;-58
2023/06/27 03:08:31;;;;;;;4.00;2.73;;;;;;;;;;5095112;28;20454;-59
2023/06/27 03:10:58;;;;;;;5.10;2.63;;;;;;;;;;5094934;28;20458;-58
2023/06/27 03:13:25;;;;;;;3.57;2.37;;;;;;;;;;5094951;28;20903;-59
2023/06/27 03:15:52;;;;;;;4.60;2.63;;;;;;;;;;5094875;28;20498;-59
2023/06/27 03:18:19;;;;;;;8.40;2.90;;;;;;;;;;5094987;28;20552;-59
2023/06/27 03:20:46;;;;;;;4.43;2.33;;;;;;;;;;5094868;28;20444;-59
2023/06/27 03:23:13;;;;;;;4.60;3.00;;;;;;;;;;5094788;28;20440;-59
2023/06/27 03:25:41;;;;;;;3.53;2.80;;;;;;;;;;5094557;28;20565;-58
2023/06/27 03:28:08;;;;;;;6.43;2.30;;;;;;;;;;5094538;28;20460;-58
2023/06/27 03:30:35;;;;;;;3.83;2.50;;;;;;;;;;5094353;28;20978;-59
2023/06/27 03:33:02;;;;;;;6.70;2.77;;;;;;;;;;5094701;28;20456;-59
2023/06/27 03:35:29;;;;;;;5.40;2.80;;;;;;;;;;5094594;28;20549;-59
2023/06/27 03:37:56;;;;;;;9.97;3.27;;;;;;;;;;5094522;28;20449;-59
2023/06/27 03:40:23;;;;;;;5.80;2.70;;;;;;;;;;5094369;28;20540;-58
2023/06/27 03:42:51;;;;;;;9.87;3.10;;;;;;;;;;5094771;28;20456;-59
2023/06/27 03:45:19;;;;;;;3.80;2.60;;;;;;;;;;5094090;28;20547;-58
2023/06/27 03:47:46;;;;;;;6.13;3.57;;;;;;;;;;5093294;28;20455;-58
2023/06/27 03:50:13;;;;;;;7.47;3.00;;;;;;;;;;5094263;28;20540;-58
2023/06/27 03:52:40;;;;;;;13.47;3.77;;;;;;;;;;5094191;28;20446;-59
2023/06/27 03:55:07;;;;;;;4.93;2.67;;;;;;;;;;5094073;28;20469;-58
2023/06/27 03:57:34;;;;;;;4.43;2.80;;;;;;;;;;5093869;28;21069;-59
2023/06/27 04:00:03;;;;;;;5.10;2.97;;;;;;;;;;5094068;28;20497;-59
2023/06/27 04:02:30;;;;;;;3.70;2.97;;;;;;;;;;5094226;28;20476;-59
2023/06/27 04:04:56;;;;;;;3.40;2.70;;;;;;;;;;5093916;28;20464;-59
2023/06/27 04:07:23;;;;;;;7.73;2.80;;;;;;;;;;5093709;28;20484;-59
2023/06/27 04:09:50;;;;;;;5.17;2.37;;;;;;;;;;5093774;28;20449;-59
2023/06/27 04:12:17;;;;;;;5.53;2.90;;;;;;;;;;5093575;28;20453;-58
2023/06/27 04:14:45;;;;;;;4.63;2.63;;;;;;;;;;5094048;28;20808;-59
2023/06/27 04:17:13;;;;;;;5.40;3.00;;;;;;;;;;5093788;28;20453;-59
2023/06/27 04:19:40;;;;;;;9.40;3.70;;;;;;;;;;5093503;28;20547;-58
2023/06/27 04:22:06;;;;;;;5.40;2.60;;;;;;;;;;5093578;28;20815;-59
2023/06/27 04:24:33;;;;;;;6.67;3.17;;;;;;;;;;5093534;28;20449;-59
2023/06/27 04:27:00;;;;;;;9.47;3.20;;;;;;;;;;5093348;28;20482;-59
2023/06/27 04:29:27;;;;;;;4.00;3.00;;;;;;;;;;5093620;28;20448;-58
2023/06/27 04:31:54;;;;;;;7.33;2.60;;;;;;;;;;5093492;28;20448;-58
2023/06/27 04:34:22;;;;;;;2.50;2.27;;;;;;;;;;5093422;28;20485;-59
2023/06/27 04:36:51;;;;;;;6.50;2.43;;;;;;;;;;5093374;28;20445;-58
2023/06/27 04:39:17;;;;;;;9.10;3.00;;;;;;;;;;5093172;28;20488;-59
2023/06/27 04:41:44;;;;;;;5.50;2.50;;;;;;;;;;5093145;28;20932;-59
2023/06/27 04:44:11;;;;;;;6.20;3.00;;;;;;;;;;5093357;28;20534;-59
2023/06/27 04:46:38;;;;;;;8.73;3.07;;;;;;;;;;5093279;28;20559;-59
2023/06/27 04:49:05;;;;;;;4.27;2.70;;;;;;;;;;5093181;28;20449;-59
2023/06/27 04:51:33;;;;;;;7.20;3.20;;;;;;;;;;5093004;28;20488;-59
2023/06/27 04:54:00;;;;;;;7.30;3.50;;;;;;;;;;5092868;28;20455;-59
2023/06/27 04:56:27;;;;;;;5.07;2.70;;;;;;;;;;5092948;28;20554;-58
2023/06/27 04:58:54;;;;;;;7.63;2.77;;;;;;;;;;5092767;28;20456;-59
2023/06/27 05:01:21;;;;;;;6.50;2.73;;;;;;;;;;5093101;28;20870;-59
2023/06/27 05:03:48;;;;;;;10.47;3.27;;;;;;;;;;5092924;28;20551;-59
2023/06/27 05:06:15;;;;;;;6.60;2.90;;;;;;;;;;5092808;28;20487;-59
2023/06/27 05:08:44;;;;;;;5.40;2.57;;;;;;;;;;5092869;28;20448;-59
2023/06/27 05:11:11;;;;;;;6.37;2.37;;;;;;;;;;5092978;28;20452;-59
2023/06/27 05:13:38;;;;;;;7.60;2.93;;;;;;;;;;5092931;28;20484;-59
2023/06/27 05:16:05;;;;;;;9.33;3.20;;;;;;;;;;5092703;28;20445;-59
2023/06/27 05:18:32;;;;;;;8.03;3.00;;;;;;;;;;5092806;28;20457;-58
2023/06/27 05:20:58;;;;;;;5.57;2.70;;;;;;;;;;5092806;28;20892;-59
2023/06/27 05:23:25;;;;;;;8.63;3.63;;;;;;;;;;5092885;28;20475;-59
2023/06/27 05:25:53;;;;;;;4.50;2.33;;;;;;;;;;5093016;28;20461;-59
2023/06/27 05:28:20;;;;;;;4.03;2.77;;;;;;;;;;5092803;28;20493;-59
2023/06/27 05:30:47;;;;;;;2.30;2.00;;;;;;;;;;5092704;28;20540;-58
2023/06/27 05:33:14;;;;;;;7.63;2.40;;;;;;;;;;5092673;28;20486;-58
2023/06/27 05:35:41;;;;;;;3.60;2.60;;;;;;;;;;5092508;28;20536;-59
2023/06/27 05:38:08;;;;;;;3.77;2.20;;;;;;;;;;5092698;28;20496;-59
2023/06/27 05:40:35;;;;;;;7.63;2.30;;;;;;;;;;5092853;28;20787;-59
2023/06/27 05:43:03;;;;;;;3.53;2.30;;;;;;;;;;5092538;28;20455;-59
2023/06/27 05:45:30;;;;;;;9.47;2.70;;;;;;;;;;5092542;28;20482;-59
2023/06/27 05:47:57;;;;;;;5.20;2.43;;;;;;;;;;5092444;28;20481;-58
2023/06/27 05:50:24;;;;;;;8.60;2.20;;;;;;;;;;5092419;28;20508;-59
2023/06/27 05:52:51;;;;;;;6.53;2.57;;;;;;;;;;5092508;28;20940;-60
2023/06/27 05:55:18;;;;;;;9.00;3.00;;;;;;;;;;5092190;28;20449;-59
2023/06/27 05:57:44;;;;;;;7.97;2.13;;;;;;;;;;5092371;28;20453;-59
2023/06/27 06:00:14;;;;;;;6.70;2.20;;;;;;;;;;5092405;28;20464;-59
2023/06/27 06:02:43;;;;;;;5.10;2.80;;;;;;;;;;5092210;28;20461;-59
2023/06/27 06:05:11;;;;;;;6.30;2.50;;;;;;;;;;5092459;28;20462;-58
2023/06/27 06:07:42;;;;;;;3.67;2.20;;;;;;;;;;5092348;28;20490;-59
2023/06/27 06:10:09;;;;;;;10.67;1.93;;;;;;;;;;5092216;28;20460;-58
2023/06/27 06:12:36;;;;;;;7.40;2.37;;;;;;;;;;5095489;28;20449;-59
2023/06/27 06:15:03;;;;;;;5.73;2.83;;;;;;;;;;5095851;28;20947;-57
2023/06/27 06:17:32;;;;;;;8.20;2.77;;;;;;;;;;5095619;28;20540;-57
2023/06/27 06:19:58;;;;;;;5.63;2.50;;;;;;;;;;5095892;28;20445;-57
2023/06/27 06:22:25;;;;;;;3.70;2.20;;;;;;;;;;5095705;28;20530;-57
2023/06/27 06:24:52;;;;;;;6.93;2.33;;;;;;;;;;5095790;28;20453;-57
2023/06/27 06:27:19;;;;;;;7.60;2.23;;;;;;;;;;5095527;28;20482;-59
2023/06/27 06:29:46;;;;;;;3.97;2.10;;;;;;;;;;5095578;28;20489;-59
2023/06/27 06:32:13;;;;;;;7.27;2.53;;;;;;;;;;5095750;28;20457;-59
2023/06/27 06:34:41;;;;;;;4.93;2.20;;;;;;;;;;5095621;28;20449;-59
2023/06/27 06:37:08;;;;;;;6.67;2.30;;;;;;;;;;5095549;28;20450;-60
2023/06/27 06:39:35;;;;;;;4.20;1.67;;;;;;;;;;5095436;28;20531;-59
2023/06/27 06:42:02;;;;;;;6.20;2.20;;;;;;;;;;5095446;28;20884;-59
2023/06/27 06:44:29;;;;;;;7.13;2.00;;;;;;;;;;5095238;28;20450;-59
2023/06/27 06:46:56;;;;;;;4.10;1.80;;;;;;;;;;5095402;28;20835;-59
2023/06/27 06:49:22;;;;;;;7.73;2.17;;;;;;;;;;5095338;28;20564;-59
2023/06/27 06:51:51;;;;;;;4.10;1.77;;;;;;;;;;5095280;28;20533;-59
2023/06/27 06:54:18;;;;;;;5.23;1.80;;;;;;;;;;5094845;28;20445;-59
2023/06/27 06:56:45;;;;;;;5.70;1.90;;;;;;;;;;5094860;28;20481;-58
2023/06/27 06:59:12;;;;;;;2.93;1.97;;;;;;;;;;5094993;28;20449;-59
2023/06/27 07:01:39;;;;;;;8.43;2.00;;;;;;;;;;5095149;28;20536;-59
2023/06/27 07:04:06;;;;;;;4.60;2.10;;;;;;;;;;5095031;28;20504;-61
2023/06/27 07:06:32;;;;;;;7.90;2.13;;;;;;;;;;5094741;28;20861;-60
2023/06/27 07:09:01;;;;;;;4.87;2.10;;;;;;;;;;5094481;28;20536;-60
2023/06/27 07:11:28;;;;;;;4.00;1.90;;;;;;;;;;5094641;28;20930;-57
2023/06/27 07:13:54;;;;;;;2.47;1.60;;;;;;;;;;5094870;28;20453;-57
2023/06/27 07:16:31;;;;;;;10.53;1.97;;;;;;;;;;5094715;28;20463;-62
2023/06/27 07:18:58;;;;;;;7.00;2.00;;;;;;;;;;5094057;28;20447;-58
2023/06/27 07:21:25;;;;;;;3.60;1.83;;;;;;;;;;5094503;28;20545;-58
2023/06/27 07:23:52;;;;;;;5.90;1.80;;;;;;;;;;5094532;28;20545;-58
2023/06/27 07:26:20;;;;;;;3.33;2.40;;;;;;;;;;5094549;28;20501;-57
2023/06/27 07:28:47;;;;;;;3.53;1.90;;;;;;;;;;5094471;28;20478;-60
2023/06/27 07:31:17;;;;;;;6.67;2.13;;;;;;;;;;5094557;28;20499;-56
2023/06/27 07:33:44;;;;;;;3.57;1.73;;;;;;;;;;5076209;28;20447;-58
2023/06/27 07:36:13;;;;;;;6.77;1.73;;;;;;;;;;5094284;28;20540;-57
2023/06/27 07:38:40;;;;;;;6.60;1.97;;;;;;;;;;5094474;28;20451;-59
2023/06/27 07:41:08;;;;;;;3.50;1.50;;;;;;;;;;5094296;28;20866;-59
2023/06/27 07:43:36;;;;;;;3.70;1.77;;;;;;;;;;5093972;28;20478;-58
2023/06/27 07:46:03;;;;;;;2.73;1.53;;;;;;;;;;5094019;28;20920;-56
2023/06/27 07:48:30;;;;;;;2.60;1.30;;;;;;;;;;5093693;28;20539;-54
2023/06/27 07:50:57;;;;;;;3.33;1.50;;;;;;;;;;5093719;28;20546;-55
2023/06/27 07:53:24;;;;;;;7.67;1.50;;;;;;;;;;5093837;28;20485;-57
2023/06/27 07:55:51;;;;;;;3.67;1.67;;;;;;;;;;5093757;28;20474;-58
2023/06/27 07:58:18;;;;;;;4.80;1.60;;;;;;;;;;5093719;28;20533;-56
2023/06/27 08:00:46;;;;;;;5.67;1.53;;;;;;;;;;5093757;28;20534;-58
2023/06/27 08:03:13;;;;;;;8.07;2.03;;;;;;;;;;5093621;28;20516;-58
2023/06/27 08:05:40;;;;;;;6.30;1.57;;;;;;;;;;5093590;28;20822;-53
2023/06/27 08:08:07;;;;;;;2.90;1.33;;;;;;;;;;5093658;28;20584;-58
2023/06/27 08:10:34;;;;;;;3.43;1.80;;;;;;;;;;5093368;28;20459;-57
2023/06/27 08:13:01;;;;;;;6.30;2.00;;;;;;;;;;5093539;28;20497;-59
2023/06/27 08:15:28;;;;;;;2.73;1.30;;;;;;;;;;5093439;28;20475;-59
2023/06/27 08:17:57;;;;;;;3.53;1.50;;;;;;;;;;5093400;28;20546;-59
2023/06/27 08:20:23;;;;;;;4.10;1.83;;;;;;;;;;5093562;28;20447;-58
2023/06/27 08:22:50;;;;;;;8.43;2.43;;;;;;;;;;5093544;28;20541;-58
2023/06/27 08:25:17;;;;;;;5.43;1.87;;;;;;;;;;5093293;28;20486;-59
2023/06/27 08:27:44;;;;;;;3.57;1.70;;;;;;;;;;5093213;28;20542;-59
2023/06/27 08:30:12;;;;;;;5.90;1.47;;;;;;;;;;5093208;28;20501;-59
2023/06/27 08:32:39;;;;;;;5.73;1.60;;;;;;;;;;5093033;28;20949;-61
2023/06/27 08:35:07;;;;;;;2.50;1.93;;;;;;;;;;5092844;28;20542;-59
2023/06/27 08:37:34;;;;;;;6.30;1.80;;;;;;;;;;5093171;28;20546;-57
2023/06/27 08:40:01;;;;;;;3.70;1.60;;;;;;;;;;5093172;28;20880;-58
2023/06/27 08:42:31;;;;;;;10.37;2.00;;;;;;;;;;5093165;28;20568;-56
2023/06/27 08:44:58;;;;;;;3.73;1.73;;;;;;;;;;5086770;28;20454;-56
2023/06/27 08:47:27;;;;;;;2.67;1.67;;;;;;;;;;5092932;28;20562;-57
2023/06/27 08:49:57;;;;;;;3.27;1.53;;;;;;;;;;5092972;28;20451;-57
2023/06/27 08:52:26;;;;;;;5.77;1.60;;;;;;;;;;5092770;28;20461;-57
2023/06/27 08:54:54;;;;;;;3.57;1.27;;;;;;;;;;5092821;28;20481;-59
2023/06/27 08:57:22;;;;;;;2.97;1.20;;;;;;;;;;5092696;28;20823;-59
2023/06/27 08:59:50;;;;;;;4.20;1.53;;;;;;;;;;5092719;28;20546;-59
2023/06/27 09:02:18;;;;;;;1.77;1.20;;;;;;;;;;5092875;28;20451;-59
2023/06/27 09:04:46;;;;;;;3.27;1.20;;;;;;;;;;5092875;28;20450;-59
2023/06/27 09:07:13;;;;;;;4.73;1.30;;;;;;;;;;5092552;28;20451;-59
2023/06/27 09:09:41;;;;;;;1.57;1.10;;;;;;;;;;5092865;28;20454;-59
2023/06/27 09:12:09;;;;;;;4.33;1.50;;;;;;;;;;5092721;28;20665;-59
2023/06/27 09:14:36;;;;;;;4.63;1.83;;;;;;;;;;5092873;28;20481;-58
2023/06/27 09:17:05;;;;;;;5.30;1.53;;;;;;;;;;5092758;28;20541;-59
2023/06/27 09:19:32;;;;;;;6.23;2.00;;;;;;;;;;5092625;28;20849;-58
2023/06/27 09:22:00;;;;;;;4.90;1.50;;;;;;;;;;5092494;28;20486;-59
2023/06/27 09:24:30;;;;;;;4.70;1.90;;;;;;;;;;5092693;28;20447;-59
2023/06/27 09:26:58;;;;;;;2.43;1.63;;;;;;;;;;5092639;28;20483;-59
2023/06/27 09:29:32;;;;;;;1.60;1.20;;;;;;;;;;5092341;28;21073;-59
2023/06/27 09:32:05;;;;;;;2.07;1.53;;;;;;;;;;5092502;28;20451;-59
2023/06/27 09:34:34;;;;;;;1.40;1.07;;;;;;;;;;5092450;28;20451;-59
2023/06/27 09:37:02;;;;;;;2.40;1.20;;;;;;;;;;5092439;28;20815;-59
2023/06/27 09:39:29;;;;;;;3.53;1.10;;;;;;;;;;5092938;28;20455;-59
2023/06/27 09:41:56;;;;;;;3.17;1.40;;;;;;;;;;5092641;28;20549;-59
2023/06/27 09:44:25;;;;;;;5.00;1.80;;;;;;;;;;5092484;28;20545;-59
2023/06/27 09:46:53;;;;;;;6.97;1.83;;;;;;;;;;5094654;28;20449;-59
2023/06/27 09:49:24;;;;;;;3.87;1.43;;;;;;;;;;5096308;28;20858;-59
2023/06/27 09:51:52;;;;;;;5.23;1.60;;;;;;;;;;5096224;28;20461;-59
2023/06/27 09:54:21;;;;;;;2.70;1.50;;;;;;;;;;5096284;28;20544;-59
2023/06/27 09:56:50;;;;;;;4.70;1.50;;;;;;;;;;5096008;28;20488;-59
2023/06/27 09:59:17;;;;;;;2.60;1.40;;;;;;;;;;5095988;28;20465;-59
2023/06/27 10:01:47;;;;;;;3.20;1.57;;;;;;;;;;5096180;28;20854;-59
2023/06/27 10:04:14;;;;;;;2.30;1.43;;;;;;;;;;5096005;28;20451;-59
2023/06/27 10:06:41;;;;;;;2.20;1.17;;;;;;;;;;5096136;28;20458;-59
2023/06/27 10:09:08;;;;;;;1.73;1.27;;;;;;;;;;5095742;28;20488;-58
2023/06/27 10:11:37;;;;;;;6.30;1.70;;;;;;;;;;5095732;28;20489;-55
2023/06/27 10:14:04;;;;;;;3.03;1.27;;;;;;;;;;5096037;28;20843;-56
2023/06/27 10:16:31;;;;;;;1.63;1.23;;;;;;;;;;5095914;28;20488;-57
2023/06/27 10:19:00;;;;;;;3.67;1.47;;;;;;;;;;5095610;28;20485;-56
2023/06/27 10:21:29;;;;;;;1.60;1.23;;;;;;;;;;5095723;28;20552;-58
2023/06/27 10:23:59;;;;;;;1.77;1.30;;;;;;;;;;5095785;28;20477;-55
2023/06/27 10:26:26;;;;;;;3.90;1.40;;;;;;;;;;5095711;28;20917;-57
2023/06/27 10:28:54;;;;;;;2.90;1.63;;;;;;;;;;5095186;28;20508;-58
2023/06/27 10:31:44;;;;;;;2.43;1.17;;;;;;;;;;5095480;28;20461;-57
2023/06/27 10:34:20;;;;;;;2.20;1.30;;;;;;;;;;5095849;28;20451;-60
2023/06/27 10:36:57;;;;;;;3.17;1.60;;;;;;;;;;5095450;28;20446;-58
2023/06/27 10:39:31;;;;;;;2.83;1.40;;;;;;;;;;5095475;28;20449;-59
2023/06/27 10:42:01;;;;;;;5.70;2.33;;;;;;;;;;5095328;28;20455;-58
2023/06/27 10:44:28;;;;;;;1.77;1.23;;;;;;;;;;5095492;28;20850;-59
2023/06/27 10:47:14;;;;;;;4.17;1.37;;;;;;;;;;5095190;28;20443;-57
2023/06/27 10:49:46;;;;;;;3.33;1.50;;;;;;;;;;5095177;28;20485;-58
2023/06/27 10:52:20;;;;;;;1.93;1.60;;;;;;;;;;5095013;28;20455;-59
2023/06/27 10:54:49;;;;;;;2.90;1.67;;;;;;;;;;5095060;28;20479;-56
2023/06/27 10:57:16;;;;;;;1.77;1.47;;;;;;;;;;5094366;28;21044;-55
2023/06/27 10:59:45;;;;;;;4.13;1.53;;;;;;;;;;5094848;28;20534;-55
2023/06/27 11:02:13;;;;;;;1.93;1.20;;;;;;;;;;5094988;28;20520;-55
2023/06/27 11:04:41;;;;;;;1.83;1.33;;;;;;;;;;5094913;28;20541;-56
2023/06/27 11:07:10;;;;;;;1.40;1.20;;;;;;;;;;5094933;28;20459;-59
2023/06/27 11:09:39;;;;;;;2.87;1.20;;;;;;;;;;5094890;28;20493;-59
2023/06/27 11:12:10;;;;;;;1.73;1.20;;;;;;;;;;5094875;28;20925;-59
2023/06/27 11:14:39;;;;;;;1.93;1.10;;;;;;;;;;5094740;28;20442;-54
2023/06/27 11:17:06;;;;;;;2.67;1.20;;;;;;;;;;5094471;28;20454;-54
2023/06/27 11:19:33;;;;;;;3.30;1.30;;;;;;;;;;5095133;28;20454;-57
2023/06/27 11:22:00;;;;;;;1.67;1.00;;;;;;;;;;5094804;28;20449;-59
2023/06/27 11:24:32;;;;;;;1.10;0.83;;;;;;;;;;5094382;28;20956;-60
2023/06/27 11:27:00;;;;;;;1.23;1.10;;;;;;;;;;5076255;28;20806;-59
2023/06/27 11:29:27;;;;;;;2.10;1.03;;;;;;;;;;5094256;28;20473;-59
2023/06/27 11:31:55;;;;;;;2.50;1.40;;;;;;;;;;5094131;28;20449;-59
2023/06/27 11:34:22;;;;;;;2.00;1.07;;;;;;;;;;5094427;28;20540;-58
2023/06/27 11:36:50;;;;;;;1.70;1.40;;;;;;;;;;5094487;28;20453;-57
2023/06/27 11:39:17;;;;;;;2.00;0.80;;;;;;;;;;5093976;28;20481;-54
2023/06/27 11:41:46;;;;;;;1.50;1.00;;;;;;;;;;5094247;28;20450;-58
2023/06/27 11:44:14;;;;;;;1.40;0.93;;;;;;;;;;5093933;28;20443;-55
2023/06/27 11:46:51;;;;;;;2.20;1.13;;;;;;;;;;5093910;28;20537;-54
2023/06/27 11:49:22;;;;;;;1.10;0.87;;;;;;;;;;5094133;28;20479;-55
2023/06/27 11:51:49;;;;;;;1.00;0.90;;;;;;;;;;5094005;28;20550;-56
2023/06/27 11:54:18;;;;;;;1.40;0.97;;;;;;;;;;5094034;28;20548;-55
2023/06/27 11:56:46;;;;;;;1.67;0.90;;;;;;;;;;5072007;28;20488;-57
2023/06/27 11:59:13;;;;;;;1.33;0.80;;;;;;;;;;5073841;28;20493;-58
2023/06/27 12:01:41;;;;;;;1.13;0.70;;;;;;;;;;5072293;28;20810;-58
2023/06/27 12:04:13;;;;;;;1.33;0.93;;;;;;;;;;5073727;28;20917;-58
2023/06/27 12:06:40;;;;;;;1.70;0.87;;;;;;;;;;5073337;28;20447;-59
2023/06/27 12:09:08;;;;;;;1.20;1.00;;;;;;;;;;5072501;28;20473;-57
2023/06/27 12:11:37;;;;;;;2.20;0.90;;;;;;;;;;5073323;28;20542;-58
2023/06/27 12:14:06;;;;;;;1.30;1.10;;;;;;;;;;5072265;28;20483;-58
2023/06/27 12:16:35;;;;;;;1.97;0.80;;;;;;;;;;5073165;28;20459;-58
2023/06/27 12:19:05;;;;;;;1.80;0.90;;;;;;;;;;5073153;28;20458;-57
2023/06/27 12:21:32;;;;;;;1.17;0.80;;;;;;;;;;5073082;28;20448;-57
2023/06/27 12:23:59;;;;;;;2.60;0.90;;;;;;;;;;5072894;28;20452;-57
2023/06/27 12:26:26;;;;;;;1.30;1.10;;;;;;;;;;5072961;28;20539;-57
2023/06/27 12:28:56;;;;;;;2.53;0.97;;;;;;;;;;5073037;28;20918;-57
2023/06/27 12:31:25;;;;;;;2.20;1.20;;;;;;;;;;5072933;28;20546;-57
2023/06/27 12:33:52;;;;;;;1.70;0.90;;;;;;;;;;5072913;28;20539;-57
2023/06/27 12:36:19;;;;;;;1.30;0.90;;;;;;;;;;5072774;28;20543;-59
2023/06/27 12:38:46;;;;;;;1.60;1.00;;;;;;;;;;5072849;28;20531;-58
2023/06/27 12:41:13;;;;;;;2.60;1.00;;;;;;;;;;5073106;28;20452;-56
2023/06/27 12:43:40;;;;;;;4.20;1.17;;;;;;;;;;5072860;28;20551;-59
2023/06/27 12:46:07;;;;;;;0.97;0.87;;;;;;;;;;5072830;28;20531;-57
2023/06/27 12:48:35;;;;;;;3.90;1.00;;;;;;;;;;5072538;28;20497;-56
2023/06/27 12:51:03;;;;;;;1.53;0.80;;;;;;;;;;5072361;28;20531;-58
2023/06/27 12:53:30;;;;;;;2.30;0.90;;;;;;;;;;5072560;28;20471;-58
2023/06/27 12:55:58;;;;;;;1.00;0.70;;;;;;;;;;5079446;28;20475;-56
2023/06/27 12:58:25;;;;;;;0.90;0.80;;;;;;;;;;5093128;28;20447;-57
2023/06/27 13:00:54;;;;;;;2.07;1.10;;;;;;;;;;5092894;28;20901;-56
2023/06/27 13:03:21;;;;;;;0.90;0.80;;;;;;;;;;5092749;28;20457;-57
2023/06/27 13:05:50;;;;;;;3.23;2.17;;;;;;;;;;5093104;28;20533;-57
2023/06/27 13:08:17;;;;;;;3.70;2.30;;;;;;;;;;5092793;28;20443;-58
2023/06/27 13:10:44;;;;;;;1.10;0.90;;;;;;;;;;5092920;28;20479;-58
2023/06/27 13:13:11;;;;;;;1.03;0.93;;;;;;;;;;5092869;28;20543;-58
2023/06/27 13:15:37;;;;;;;3.27;1.10;;;;;;;;;;5092881;28;20525;-58
2023/06/27 13:18:04;;;;;;;1.73;1.03;;;;;;;;;;5092718;28;20550;-57
2023/06/27 13:20:31;;;;;;;1.20;0.83;;;;;;;;;;5094787;28;20449;-56
2023/06/27 13:23:01;;;;;;;0.90;0.90;;;;;;;;;;5097056;28;20545;-57
2023/06/27 13:25:28;;;;;;;1.80;1.10;;;;;;;;;;5096924;28;20447;-56
2023/06/27 13:27:58;;;;;;;1.80;1.20;;;;;;;;;;5096848;28;20443;-57
2023/06/27 13:30:24;;;;;;;5.60;1.30;;;;;;;;;;5096487;28;20518;-57
2023/06/27 13:32:51;;;;;;;1.90;1.23;;;;;;;;;;5096511;28;20450;-58
2023/06/27 13:35:19;;;;;;;2.33;1.13;;;;;;;;;;5096744;28;20496;-60
2023/06/27 13:37:46;;;;;;;1.80;1.00;;;;;;;;;;5096614;28;20455;-57
2023/06/27 13:40:15;;;;;;;2.00;1.27;;;;;;;;;;5096576;28;20443;-56
2023/06/27 13:42:42;;;;;;;1.53;1.37;;;;;;;;;;5096521;28;20447;-57
2023/06/27 13:45:09;;;;;;;1.80;1.13;;;;;;;;;;5096483;28;20880;-57
2023/06/27 13:47:36;;;;;;;1.10;1.00;;;;;;;;;;5096609;28;20446;-57
2023/06/27 13:50:03;;;;;;;3.00;1.23;;;;;;;;;;5096358;28;20483;-58
2023/06/27 13:52:30;;;;;;;1.43;1.00;;;;;;;;;;5096437;28;20447;-57
2023/06/27 13:54:57;;;;;;;1.93;1.00;;;;;;;;;;5096256;28;20457;-57
2023/06/27 13:57:25;;;;;;;1.20;1.10;;;;;;;;;;5096016;28;20479;-57
2023/06/27 13:59:52;;;;;;;1.47;0.80;;;;;;;;;;5096626;28;20454;-57
2023/06/27 14:02:19;;;;;;;1.77;1.20;;;;;;;;;;5096380;28;20542;-57
2023/06/27 14:04:46;;;;;;;0.80;0.77;;;;;;;;;;5096209;28;20447;-57
2023/06/27 14:07:13;;;;;;;0.80;0.70;;;;;;;;;;5096176;28;20450;-57
2023/06/27 14:09:40;;;;;;;1.33;1.00;;;;;;;;;;5096053;28;20570;-58
2023/06/27 14:12:07;;;;;;;1.07;0.93;;;;;;;;;;5095815;28;20891;-58
2023/06/27 14:14:35;;;;;;;2.83;0.90;;;;;;;;;;5096190;28;20875;-58
2023/06/27 14:17:02;;;;;;;2.20;0.90;;;;;;;;;;5095894;28;20474;-59
2023/06/27 14:19:29;;;;;;;1.07;0.80;;;;;;;;;;5096038;28;20534;-58
2023/06/27 14:21:56;;;;;;;1.67;1.17;;;;;;;;;;5095830;28;20887;-55
2023/06/27 14:24:23;;;;;;;2.30;1.20;;;;;;;;;;5095649;28;20453;-55
2023/06/27 14:26:50;;;;;;;1.23;0.97;;;;;;;;;;5095525;28;20535;-56
2023/06/27 14:29:17;;;;;;;1.30;1.10;;;;;;;;;;5095711;28;20899;-55
2023/06/27 14:31:45;;;;;;;2.63;0.90;;;;;;;;;;5094725;28;20453;-56
2023/06/27 14:34:12;;;;;;;1.77;0.90;;;;;;;;;;5095605;28;20542;-55
2023/06/27 14:36:39;;;;;;;2.10;1.00;;;;;;;;;;5095473;28;20533;-58
2023/06/27 14:39:05;;;;;;;5.20;4.50;;;;;;;;;;5095410;28;20863;-56
2023/06/27 14:41:32;;;;;;;2.53;1.77;;;;;;;;;;5095230;28;20542;-55
2023/06/27 14:43:59;;;;;;;1.73;1.17;;;;;;;;;;5095271;28;20546;-56
2023/06/27 14:46:26;;;;;;;1.87;0.93;;;;;;;;;;5095415;28;20882;-56